Port Angeles, WA

3:38 AM PDT on March 27, 2017 (GMT -0700)
South Regent St. | | Change Station

Elev 500 ft 48.10 °N, 123.44 °W | Updated 15 seconds ago

Overcast
Overcast
42.1 °F
Feels Like 42 °F
N
2.0
Wind Variable Wind from SSE

Today
High -- | Low -- °F
--% Chance of Precip.
Yesterday
High -- | Low -- °F
Precip. -- in
Pressure 29.84 in
Visibility 10.0 miles
Clouds Mostly Cloudy 1700 ft
Overcast 3100 ft
Windchill 42 °F
Dew Point 41 °F
Humidity 98%
Rainfall 0.00 in
Snow Depth Not available.
7:01 AM 7:37 PM
Waning Crescent, 1% visible
SPECI KCLM 271008Z AUTO 24003KT 10SM BKN017 OVC031 04/04 A2984 RMK AO2 T00440044
Pressure 29.84 in
Visibility 10.0 miles
Clouds Mostly Cloudy 1700 ft
Overcast 3100 ft
Windchill 42 °F
Dew Point 41 °F
Humidity 98%
Rainfall 0.00 in
Snow Depth Not available.
7:01 AM 7:37 PM
Waning Crescent, 1% visible
SPECI KCLM 271008Z AUTO 24003KT 10SM BKN017 OVC031 04/04 A2984 RMK AO2 T00440044

Get Severe Weather Alerts

Thanks for signing up!

Be on the lookout for a verification email in your inbox.

You'll start receiving the daily forecast at 8 AM.

×

10-Day Weather Forecast

Almanac

Astronomy

Mar. 27, 2017 Rise Set
Actual Time
Civil Twilight
Nautical Twilight
Astronomical Twilight
Moon
Length of Visible Light
Length of Day
Tomorrow will be .
, % of the Moon is Illuminated

Today's Extremes

State Highs State Lows

Community

WunderPhotos

Upload Photos

1,962,540 photos uploaded!

WunderBlog® & News

Nearby

Air Quality

  Air Quality AQ Index Pollutant
Not available.

Snow Depth

Station Depth Elevation

Earthquake Activity

City Distance Mag. Time & Date
Minimum magnitude displayed is 2.5.

Earthquake Activity

City Distance Mag. Time & Date
Minimum magnitude displayed is 2.5.

Coastal Water Temperatures

Place Temperature

Stations

Nearby Weather Stations

Station Location Temp. Windchill Dew Point Humidity Wind Precip. Elev Updated Type
                   

Watches & Warnings

There are currently no watches in effect.